Kittanning, PA (16201)

11:11 AM EST on December 26, 2014 (GMT -0500)
At Grace Baptist Church | Change Station
CLOSE
Current Station
Personal Weather Station
Location: Kittanning, PA
Elevation: 1084 ft
Nearby Weather Stations

Elev 1084 ft 40.82 °N, 79.54 °W | Updated 8 seconds ago

Partly Cloudy
Partly Cloudy
40.1 °F
Feels Like 35 °F
N
8.0
Wind Variable Wind from SW
Gusts 11.0 mph

Today
High -- | Low -- °F
--% Chance of Precip.
Yesterday
High -- | Low -- °F
Precip. -- in
7:41 AM 4:56 PM
Waxing Crescent, 27% visible
Pressure 30.28 in
Visibility 10.0 miles
Clouds Clear
Windchill 35 °F
Dew Point 33 °F
Humidity 76%
Rainfall 0.01 in
Snow Depth Not available.
UV 2 out of 12
Pollen .10 out of 12
Air Quality Not available.
Flu Activity Not available.
METAR KBTP 261555Z AUTO 22007KT 10SM CLR 05/M01 A3028 RMK AO1

More Conditions Fewer Conditions

Pressure 30.28 in
Visibility 10.0 miles
Clouds Clear
Windchill 35 °F
Dew Point 33 °F
Humidity 76%
Rainfall 0.01 in
Snow Depth Not available.
UV 2 out of 12
Pollen .10 out of 12
Air Quality Not available.
Flu Activity Not available.
METAR KBTP 261555Z AUTO 22007KT 10SM CLR 05/M01 A3028 RMK AO1

More Conditions Fewer Conditions

10-Day Weather Forecast

Almanac

Astronomy

Dec. 26, 2014 Rise Set
Actual Time
Civil Twilight
Nautical Twilight
Astronomical Twilight
Moon
Length of Visible Light
Length of Day
Tomorrow will be .
, % of the Moon is Illuminated

Today's Extremes

State Highs State Lows

Community

WunderPhotos

Upload Photos

1,780,625 photos uploaded!

WunderBlogs® & News

Nearby

Air Quality

  Air Quality AQ Index Pollutant
Not available.

Snow Depth

Station Depth Elevation

Earthquake Activity

City Distance Mag. Time & Date
Minimum magnitude displayed is 2.5.

Coastal Water Temperatures

Place Temperature

Nearby Weather Stations